createdAt,value
2023-05-22T00:00:19.703Z,17.90
2023-05-22T00:02:48.436Z,17.43
2023-05-22T00:05:18.442Z,18.10
2023-05-22T00:07:48.197Z,18.47
2023-05-22T00:10:16.404Z,20.00
2023-05-22T00:12:44.630Z,19.33
2023-05-22T00:15:13.563Z,18.63
2023-05-22T00:17:42.162Z,18.13
2023-05-22T00:20:11.262Z,19.03
2023-05-22T00:22:39.617Z,19.83
2023-05-22T00:25:10.028Z,19.20
2023-05-22T00:27:38.286Z,19.57
2023-05-22T00:30:09.053Z,20.23
2023-05-22T00:32:37.321Z,20.27
2023-05-22T00:35:06.548Z,20.70
2023-05-22T00:37:34.803Z,21.77
2023-05-22T00:40:03.922Z,22.07
2023-05-22T00:42:33.507Z,21.80
2023-05-22T00:45:01.709Z,23.30
2023-05-22T00:47:29.927Z,22.90
2023-05-22T00:49:58.221Z,23.43
2023-05-22T00:52:26.818Z,23.43
2023-05-22T00:54:55.489Z,23.23
2023-05-22T00:57:24.538Z,23.00
2023-05-22T00:59:54.186Z,24.23
2023-05-22T01:02:22.395Z,23.43
2023-05-22T01:04:50.583Z,23.83
2023-05-22T01:07:18.841Z,23.67
2023-05-22T01:09:47.048Z,23.93
2023-05-22T01:12:18.056Z,24.60
2023-05-22T01:14:51.487Z,24.13
2023-05-22T01:17:25.580Z,23.13
2023-05-22T01:20:01.466Z,25.47
2023-05-22T01:22:38.662Z,22.07
2023-05-22T01:25:18.809Z,22.77
2023-05-22T01:28:03.451Z,23.23
2023-05-22T01:30:49.671Z,23.23
2023-05-22T01:33:19.958Z,23.93
2023-05-22T01:35:51.422Z,23.40
2023-05-22T01:38:19.949Z,23.80
2023-05-22T01:40:48.503Z,23.37
2023-05-22T01:43:16.917Z,23.50
2023-05-22T01:45:45.164Z,23.33
2023-05-22T01:48:13.435Z,22.53
2023-05-22T01:50:43.701Z,24.20
2023-05-22T01:53:13.759Z,23.10
2023-05-22T01:55:45.214Z,22.63
2023-05-22T01:58:16.430Z,23.03
2023-05-22T02:00:45.914Z,21.70
2023-05-22T02:03:17.039Z,22.77
2023-05-22T02:05:47.362Z,23.03
2023-05-22T02:08:16.420Z,23.07
2023-05-22T02:10:45.338Z,23.33
2023-05-22T02:13:13.818Z,23.20
2023-05-22T02:15:42.186Z,21.93
2023-05-22T02:18:12.841Z,24.20
2023-05-22T02:20:41.536Z,24.87
2023-05-22T02:23:11.177Z,25.13
2023-05-22T02:25:39.402Z,25.50
2023-05-22T02:28:07.641Z,24.93
2023-05-22T02:30:35.905Z,25.43
2023-05-22T02:33:05.579Z,24.77
2023-05-22T02:35:33.950Z,25.10
2023-05-22T02:38:02.598Z,25.43
2023-05-22T02:40:32.173Z,24.23
2023-05-22T02:43:00.390Z,24.30
2023-05-22T02:45:28.603Z,24.90
2023-05-22T02:47:56.860Z,24.73
2023-05-22T02:50:25.122Z,23.77
2023-05-22T02:52:53.380Z,25.63
2023-05-22T02:55:21.578Z,23.13
2023-05-22T02:57:51.170Z,24.63
2023-05-22T03:00:19.974Z,24.73
2023-05-22T03:02:48.313Z,24.23
2023-05-22T03:05:17.654Z,25.33
2023-05-22T03:07:48.834Z,26.30
2023-05-22T03:10:17.158Z,26.73
2023-05-22T03:12:45.367Z,26.77
2023-05-22T03:15:14.939Z,26.53
2023-05-22T03:17:43.184Z,26.57
2023-05-22T03:20:16.984Z,27.17
2023-05-22T03:22:45.930Z,28.77
2023-05-22T03:25:14.139Z,28.17
2023-05-22T03:27:42.318Z,27.63
2023-05-22T03:30:10.795Z,29.17
2023-05-22T03:32:40.948Z,28.47
2023-05-22T03:35:09.727Z,28.20
2023-05-22T03:37:37.919Z,29.60
2023-05-22T03:40:06.663Z,26.50
2023-05-22T03:42:34.897Z,29.60
2023-05-22T03:45:03.145Z,27.33
2023-05-22T03:47:31.363Z,26.53
2023-05-22T03:50:00.920Z,25.90
2023-05-22T03:52:29.112Z,26.77
2023-05-22T03:54:57.302Z,26.30
2023-05-22T03:57:25.511Z,27.40
2023-05-22T03:59:53.735Z,26.47
2023-05-22T04:02:22.040Z,27.47
2023-05-22T04:04:50.505Z,27.60
2023-05-22T04:07:20.296Z,26.07
2023-05-22T04:09:48.511Z,25.63
2023-05-22T04:12:16.842Z,25.60
2023-05-22T04:14:45.073Z,27.00
2023-05-22T04:17:13.279Z,25.97
2023-05-22T04:19:41.442Z,26.53
2023-05-22T04:22:09.622Z,27.33
2023-05-22T04:24:39.889Z,26.33
2023-05-22T04:27:08.196Z,29.10
2023-05-22T04:29:37.394Z,28.93
2023-05-22T04:32:06.235Z,29.13
2023-05-22T04:34:37.327Z,29.43
2023-05-22T04:37:06.187Z,28.77
2023-05-22T04:39:34.436Z,29.13
2023-05-22T04:42:05.839Z,30.37
2023-05-22T04:44:34.603Z,27.97
2023-05-22T04:47:03.962Z,29.37
2023-05-22T04:49:33.695Z,29.57
2023-05-22T04:52:04.665Z,30.03
2023-05-22T04:54:32.913Z,29.57
2023-05-22T04:57:02.631Z,30.93
2023-05-22T04:59:33.400Z,30.00
2023-05-22T05:02:01.607Z,28.80
2023-05-22T05:04:29.784Z,30.00
2023-05-22T05:06:58.630Z,29.93
2023-05-22T05:09:26.937Z,30.10
2023-05-22T05:11:55.193Z,31.17
2023-05-22T05:14:23.413Z,30.73
2023-05-22T05:16:53.175Z,31.13
2023-05-22T05:19:22.136Z,28.87
2023-05-22T05:21:50.560Z,31.37
2023-05-22T05:24:18.860Z,30.47
2023-05-22T05:26:47.324Z,30.63
2023-05-22T05:29:15.564Z,30.70
2023-05-22T05:31:43.804Z,29.67
2023-05-22T05:34:13.549Z,30.43
2023-05-22T05:36:42.143Z,29.57
2023-05-22T05:39:10.349Z,30.23
2023-05-22T05:41:38.569Z,28.77
2023-05-22T05:44:06.776Z,29.93
2023-05-22T05:46:35.702Z,30.43
2023-05-22T05:49:09.860Z,28.27
2023-05-22T05:51:39.495Z,29.27
2023-05-22T05:54:07.799Z,29.07
2023-05-22T05:56:36.572Z,28.20
2023-05-22T05:59:05.069Z,27.77
2023-05-22T06:01:35.692Z,29.00
2023-05-22T06:04:04.148Z,28.63
2023-05-22T06:06:35.665Z,29.00
2023-05-22T06:09:06.319Z,27.70
2023-05-22T06:11:35.042Z,26.43
2023-05-22T06:14:03.769Z,26.00
2023-05-22T06:16:32.195Z,25.13
2023-05-22T06:19:00.860Z,25.30
2023-05-22T06:21:29.110Z,25.17
2023-05-22T06:23:57.421Z,25.33
2023-05-22T06:26:27.772Z,24.43
2023-05-22T06:28:56.071Z,25.60
2023-05-22T06:31:25.092Z,25.30
2023-05-22T06:33:53.395Z,26.57
2023-05-22T06:36:21.684Z,25.60
2023-05-22T06:38:51.827Z,25.93
2023-05-22T06:41:20.115Z,23.63
2023-05-22T06:43:49.742Z,26.00
2023-05-22T06:46:18.052Z,24.07
2023-05-22T06:48:46.304Z,24.33
2023-05-22T06:51:15.029Z,22.80
2023-05-22T06:53:43.262Z,23.03
2023-05-22T06:56:11.452Z,23.97
2023-05-22T06:58:41.181Z,22.67
2023-05-22T07:01:10.795Z,21.67
2023-05-22T07:03:39.203Z,21.37
2023-05-22T07:06:08.105Z,20.77
2023-05-22T07:08:36.363Z,20.83
2023-05-22T07:11:06.833Z,20.70
2023-05-22T07:13:35.081Z,20.33
2023-05-22T07:16:03.330Z,20.77
2023-05-22T07:18:32.977Z,20.60
2023-05-22T07:21:01.563Z,19.40
2023-05-22T07:23:29.899Z,20.10
2023-05-22T07:25:58.130Z,20.40
2023-05-22T07:28:26.766Z,20.80
2023-05-22T07:30:54.990Z,20.87
2023-05-22T07:33:23.234Z,22.30
2023-05-22T07:35:52.798Z,20.97
2023-05-22T07:38:21.026Z,22.87
2023-05-22T07:40:49.252Z,22.47
2023-05-22T07:43:17.449Z,20.43
2023-05-22T07:45:45.761Z,22.03
2023-05-22T07:48:14.039Z,22.77
2023-05-22T07:50:44.768Z,22.80
2023-05-22T07:53:14.852Z,22.10
2023-05-22T07:55:43.275Z,25.37
2023-05-22T07:58:11.584Z,25.70
2023-05-22T08:00:39.807Z,29.87
2023-05-22T08:03:08.208Z,27.83
2023-05-22T08:05:36.596Z,38.47
2023-05-22T08:08:05.023Z,24.90
2023-05-22T08:10:52.261Z,37.57
2023-05-22T08:13:23.955Z,27.43
2023-05-22T08:15:52.200Z,25.97
2023-05-22T08:18:29.217Z,25.87
2023-05-22T08:20:58.017Z,25.23
2023-05-22T08:23:26.308Z,28.13
2023-05-22T08:25:56.009Z,27.20
2023-05-22T08:28:24.227Z,27.83
2023-05-22T08:30:52.491Z,27.33
2023-05-22T08:33:20.769Z,29.70
2023-05-22T08:35:48.981Z,31.30
2023-05-22T08:38:17.523Z,27.70
2023-05-22T08:40:49.097Z,30.10
2023-05-22T08:43:18.763Z,30.80
2023-05-22T08:45:47.253Z,30.90
2023-05-22T08:48:16.404Z,34.93
2023-05-22T08:50:44.756Z,32.63
2023-05-22T08:53:14.857Z,31.83
2023-05-22T08:55:43.389Z,31.53
2023-05-22T08:58:12.854Z,40.53
2023-05-22T09:00:42.713Z,31.97
2023-05-22T09:03:13.789Z,33.67
2023-05-22T09:05:42.217Z,49.30
2023-05-22T09:08:19.714Z,35.90
2023-05-22T09:10:48.972Z,31.60
2023-05-22T09:13:26.944Z,32.53
2023-05-22T09:15:59.917Z,30.73
2023-05-22T09:18:28.964Z,33.73
2023-05-22T09:20:58.918Z,32.57
2023-05-22T09:23:29.241Z,32.57
2023-05-22T09:25:57.804Z,31.97
2023-05-22T09:28:28.994Z,31.87
2023-05-22T09:31:01.216Z,31.50
2023-05-22T09:33:32.326Z,31.90
2023-05-22T09:36:01.445Z,32.43
2023-05-22T09:38:30.778Z,32.50
2023-05-22T09:40:59.029Z,31.40
2023-05-22T09:43:27.284Z,31.63
2023-05-22T09:46:04.162Z,31.70
2023-05-22T09:48:37.324Z,30.37
2023-05-22T09:51:06.119Z,31.20
2023-05-22T09:53:34.909Z,30.00
2023-05-22T09:56:03.905Z,31.80
2023-05-22T09:58:33.020Z,32.33
2023-05-22T10:01:02.919Z,31.13
2023-05-22T10:03:32.990Z,34.50
2023-05-22T10:06:02.546Z,33.00
2023-05-22T10:08:31.368Z,32.27
2023-05-22T10:10:59.638Z,32.93
2023-05-22T10:13:28.090Z,31.03
2023-05-22T10:15:56.679Z,31.17
2023-05-22T10:18:26.447Z,31.47
2023-05-22T10:20:55.167Z,31.50
2023-05-22T10:23:23.845Z,31.53
2023-05-22T10:25:52.089Z,31.80
2023-05-22T10:28:24.242Z,30.97
2023-05-22T10:30:57.338Z,32.83
2023-05-22T10:33:27.815Z,31.57
2023-05-22T10:35:57.538Z,30.90
2023-05-22T10:38:42.482Z,32.20
2023-05-22T10:41:11.380Z,31.27
2023-05-22T10:43:40.743Z,30.43
2023-05-22T10:46:11.453Z,31.40
2023-05-22T10:48:41.819Z,29.83
2023-05-22T10:51:10.141Z,29.33
2023-05-22T10:53:38.374Z,30.83
2023-05-22T10:56:13.379Z,30.03
2023-05-22T10:58:41.955Z,29.93
2023-05-22T11:01:10.964Z,29.33
2023-05-22T11:03:59.666Z,28.77
2023-05-22T11:06:34.809Z,28.93
2023-05-22T11:09:18.371Z,28.27
2023-05-22T11:11:46.869Z,30.23
2023-05-22T11:14:17.855Z,29.63
2023-05-22T11:16:46.154Z,29.57
2023-05-22T11:21:48.617Z,29.23
2023-05-22T11:24:18.044Z,28.53
2023-05-22T11:26:46.533Z,31.10
2023-05-22T11:29:16.444Z,29.27
2023-05-22T11:31:44.703Z,31.20
2023-05-22T11:34:13.997Z,29.13
2023-05-22T11:36:43.580Z,32.90
2023-05-22T11:39:16.312Z,30.97
2023-05-22T11:41:44.535Z,30.90
2023-05-22T11:44:12.726Z,30.57
2023-05-22T11:46:41.417Z,30.83
2023-05-22T11:49:13.142Z,33.03
2023-05-22T11:51:41.621Z,31.63
2023-05-22T11:54:11.215Z,31.43
2023-05-22T11:56:39.755Z,33.03
2023-05-22T11:59:07.926Z,32.03
2023-05-22T12:01:36.310Z,32.17
2023-05-22T12:04:04.788Z,32.63
2023-05-22T12:06:33.501Z,32.27
2023-05-22T12:09:02.757Z,32.13
2023-05-22T12:11:36.279Z,31.60
2023-05-22T12:14:05.151Z,30.93
2023-05-22T12:16:36.233Z,30.87
2023-05-22T12:19:07.317Z,31.73
2023-05-22T12:21:36.554Z,29.93
2023-05-22T12:24:05.658Z,30.77
2023-05-22T12:26:35.418Z,31.47
2023-05-22T12:29:03.850Z,31.00
2023-05-22T12:31:36.769Z,30.33
2023-05-22T12:34:06.074Z,30.53
2023-05-22T12:36:35.453Z,28.03
2023-05-22T12:39:03.871Z,28.70
2023-05-22T12:41:32.090Z,30.80
2023-05-22T12:44:02.091Z,30.17
2023-05-22T12:46:31.291Z,30.70
2023-05-22T12:48:59.603Z,31.50
2023-05-22T12:51:29.674Z,29.13
2023-05-22T12:53:58.040Z,29.47
2023-05-22T12:56:26.392Z,29.73
2023-05-22T12:58:54.688Z,30.27
2023-05-22T13:01:24.452Z,30.47
2023-05-22T13:03:53.175Z,29.63
2023-05-22T13:06:21.529Z,30.13
2023-05-22T13:08:49.730Z,27.53
2023-05-22T13:11:19.981Z,30.23
2023-05-22T13:13:48.197Z,30.03
2023-05-22T13:16:16.466Z,31.17
2023-05-22T13:18:46.115Z,33.10
2023-05-22T13:21:14.463Z,32.00
2023-05-22T13:23:42.666Z,32.53
2023-05-22T13:26:10.876Z,33.83
2023-05-22T13:28:39.074Z,34.87
2023-05-22T13:31:07.310Z,34.10
2023-05-22T13:33:35.680Z,34.10
2023-05-22T13:36:05.392Z,34.40
2023-05-22T13:38:33.609Z,32.23
2023-05-22T13:41:02.140Z,35.37
2023-05-22T13:43:30.420Z,34.30
2023-05-22T13:45:58.654Z,36.40
2023-05-22T13:48:26.881Z,33.33
2023-05-22T13:50:55.100Z,34.77
2023-05-22T13:53:24.673Z,34.93
2023-05-22T13:55:52.886Z,35.67
2023-05-22T13:58:21.128Z,34.93
2023-05-22T14:00:49.402Z,35.87
2023-05-22T14:03:18.244Z,34.83
2023-05-22T14:05:46.531Z,33.33
2023-05-22T14:08:14.779Z,34.53
2023-05-22T14:10:44.340Z,35.40
2023-05-22T14:13:12.645Z,36.37
2023-05-22T14:15:42.454Z,36.33
2023-05-22T14:18:11.191Z,35.60
2023-05-22T14:20:39.407Z,36.77
2023-05-22T14:23:07.607Z,35.97
2023-05-22T14:25:36.060Z,35.23
2023-05-22T14:28:05.618Z,37.03
2023-05-22T14:30:33.903Z,37.50
2023-05-22T14:33:02.277Z,36.63
2023-05-22T14:35:30.995Z,35.17
2023-05-22T14:37:59.181Z,36.00
2023-05-22T14:40:27.442Z,33.83
2023-05-22T14:42:55.849Z,37.27
2023-05-22T14:45:25.466Z,34.43
2023-05-22T14:47:53.821Z,36.37
2023-05-22T14:50:22.340Z,34.77
2023-05-22T14:52:51.006Z,35.53
2023-05-22T14:55:19.468Z,35.27
2023-05-22T14:57:47.682Z,34.17
2023-05-22T15:00:16.448Z,35.90
2023-05-22T15:02:46.086Z,36.43
2023-05-22T15:05:14.396Z,35.53
2023-05-22T15:07:46.094Z,36.23
2023-05-22T15:10:15.561Z,35.97
2023-05-22T15:12:43.769Z,36.70
2023-05-22T15:15:12.390Z,37.47
2023-05-22T15:17:42.538Z,37.83
2023-05-22T15:20:13.479Z,37.50
2023-05-22T15:22:41.697Z,36.67
2023-05-22T15:25:11.878Z,33.63
2023-05-22T15:27:40.955Z,35.17
2023-05-22T15:30:10.640Z,35.47
2023-05-22T15:32:39.479Z,37.87
2023-05-22T15:35:09.049Z,33.93
2023-05-22T15:37:38.640Z,37.53
2023-05-22T15:40:09.537Z,38.97
2023-05-22T15:42:37.744Z,33.50
2023-05-22T15:45:06.272Z,37.47
2023-05-22T15:47:34.494Z,35.83
2023-05-22T15:50:02.897Z,35.20
2023-05-22T15:52:31.153Z,30.73
2023-05-22T15:55:00.702Z,36.10
2023-05-22T15:57:29.357Z,36.70
2023-05-22T15:59:57.621Z,36.80
2023-05-22T16:02:26.450Z,33.57
2023-05-22T16:04:54.669Z,29.00
2023-05-22T16:07:22.928Z,32.63
2023-05-22T16:09:51.163Z,34.83
2023-05-22T16:12:20.776Z,32.70
2023-05-22T16:14:49.630Z,33.03
2023-05-22T16:17:17.925Z,30.00
2023-05-22T16:19:46.127Z,32.33
2023-05-22T16:22:14.333Z,31.30
2023-05-22T16:24:42.556Z,31.17
2023-05-22T16:27:10.749Z,31.30
2023-05-22T16:29:40.299Z,30.00
2023-05-22T16:32:09.099Z,32.37
2023-05-22T16:34:37.371Z,30.43
2023-05-22T16:37:05.780Z,30.57
2023-05-22T16:39:34.015Z,29.87
2023-05-22T16:42:02.248Z,29.63
2023-05-22T16:44:30.425Z,29.90
2023-05-22T16:47:00.015Z,28.60
2023-05-22T16:49:28.278Z,31.17
2023-05-22T16:51:56.491Z,29.13
2023-05-22T16:54:24.678Z,28.10
2023-05-22T16:56:52.894Z,27.47
2023-05-22T16:59:21.169Z,29.17
2023-05-22T17:01:49.403Z,30.83
2023-05-22T17:04:20.597Z,28.40
2023-05-22T17:06:49.405Z,27.47
2023-05-22T17:09:17.622Z,28.07
2023-05-22T17:11:45.967Z,28.93
2023-05-22T17:14:14.192Z,27.00
2023-05-22T17:16:42.456Z,28.20
2023-05-22T17:19:10.805Z,28.33
2023-05-22T17:21:40.401Z,25.50
2023-05-22T17:24:11.605Z,24.53
2023-05-22T17:26:41.479Z,26.37
2023-05-22T17:29:10.894Z,27.20
2023-05-22T17:31:39.688Z,26.13
2023-05-22T17:34:08.053Z,26.40
2023-05-22T17:36:36.268Z,28.93
2023-05-22T17:39:06.051Z,31.23
2023-05-22T17:41:34.351Z,28.90
2023-05-22T17:44:02.800Z,34.30
2023-05-22T17:46:31.177Z,28.10
2023-05-22T17:48:59.565Z,28.70
2023-05-22T17:51:27.819Z,28.83
2023-05-22T17:53:56.427Z,27.27
2023-05-22T17:56:26.607Z,27.77
2023-05-22T17:58:55.059Z,25.77
2023-05-22T18:01:24.419Z,27.60
2023-05-22T18:03:52.904Z,23.90
2023-05-22T18:06:23.338Z,28.23
2023-05-22T18:08:53.107Z,25.37
2023-05-22T18:11:21.369Z,27.17
2023-05-22T18:13:50.915Z,25.83
2023-05-22T18:16:19.525Z,28.70
2023-05-22T18:18:47.889Z,26.30
2023-05-22T18:21:16.158Z,28.23
2023-05-22T18:23:44.367Z,30.03
2023-05-22T18:26:12.577Z,27.53
2023-05-22T18:28:42.334Z,28.83
2023-05-22T18:31:11.890Z,30.07
2023-05-22T18:33:40.930Z,30.73
2023-05-22T18:36:09.510Z,30.67
2023-05-22T18:38:37.718Z,30.67
2023-05-22T18:41:06.179Z,30.73
2023-05-22T18:43:34.443Z,31.33
2023-05-22T18:46:02.827Z,28.67
2023-05-22T18:48:33.149Z,30.80
2023-05-22T18:51:01.530Z,31.57
2023-05-22T18:53:30.000Z,31.17
2023-05-22T18:55:58.249Z,29.53
2023-05-22T18:58:26.718Z,31.57
2023-05-22T19:00:55.819Z,31.27
2023-05-22T19:03:24.294Z,32.07
2023-05-22T19:05:53.921Z,32.17
2023-05-22T19:08:24.783Z,31.73
2023-05-22T19:10:52.985Z,30.67
2023-05-22T19:13:21.191Z,32.40
2023-05-22T19:15:49.396Z,30.23
2023-05-22T19:18:18.255Z,31.73
2023-05-22T19:20:46.660Z,31.77
2023-05-22T19:23:16.276Z,31.13
2023-05-22T19:25:44.464Z,31.67
2023-05-22T19:28:12.652Z,29.40
2023-05-22T19:30:41.054Z,31.90
2023-05-22T19:33:10.538Z,33.23
2023-05-22T19:35:38.807Z,31.43
2023-05-22T19:38:07.010Z,29.83
2023-05-22T19:40:36.582Z,32.33
2023-05-22T19:43:04.910Z,32.13
2023-05-22T19:45:33.106Z,32.90
2023-05-22T19:48:01.351Z,30.27
2023-05-22T19:50:29.618Z,33.47
2023-05-22T19:52:58.394Z,32.20
2023-05-22T19:55:26.730Z,31.93
2023-05-22T19:57:56.311Z,31.77
2023-05-22T20:00:24.542Z,32.50
2023-05-22T20:02:52.931Z,32.80
2023-05-22T20:05:21.463Z,31.07
2023-05-22T20:07:49.996Z,32.97
2023-05-22T20:10:18.253Z,32.93
2023-05-22T20:12:47.104Z,33.57
2023-05-22T20:15:17.724Z,32.70
2023-05-22T20:17:52.261Z,33.83
2023-05-22T20:20:20.562Z,35.30
2023-05-22T20:22:48.864Z,33.80
2023-05-22T20:25:17.227Z,34.43
2023-05-22T20:27:45.490Z,33.20
2023-05-22T20:30:14.238Z,34.23
2023-05-22T20:32:45.813Z,34.07
2023-05-22T20:35:18.515Z,36.53
2023-05-22T20:37:47.404Z,36.13
2023-05-22T20:40:17.481Z,35.77
2023-05-22T20:42:46.114Z,36.47
2023-05-22T20:45:16.262Z,36.80
2023-05-22T20:47:46.141Z,35.83
2023-05-22T20:50:15.524Z,37.13
2023-05-22T20:52:45.874Z,36.80
2023-05-22T20:55:14.082Z,37.77
2023-05-22T20:57:42.280Z,37.57
2023-05-22T21:00:13.756Z,35.83
2023-05-22T21:02:42.192Z,36.80
2023-05-22T21:05:12.129Z,39.33
2023-05-22T21:07:40.430Z,38.57
2023-05-22T21:10:09.360Z,39.33
2023-05-22T21:12:37.588Z,39.20
2023-05-22T21:15:06.197Z,39.00
2023-05-22T21:17:34.536Z,37.57
2023-05-22T21:20:03.081Z,38.70
2023-05-22T21:22:32.638Z,37.83
2023-05-22T21:25:00.841Z,39.27
2023-05-22T21:27:29.121Z,38.40
2023-05-22T21:29:57.324Z,39.47
2023-05-22T21:32:25.568Z,39.73
2023-05-22T21:34:53.790Z,40.03
2023-05-22T21:37:21.985Z,38.30
2023-05-22T21:39:51.727Z,38.17
2023-05-22T21:42:21.367Z,40.93
2023-05-22T21:44:49.710Z,39.93
2023-05-22T21:47:17.910Z,41.33
2023-05-22T21:49:46.210Z,42.20
2023-05-22T21:52:14.480Z,42.60
2023-05-22T21:54:42.735Z,42.40
2023-05-22T21:57:12.296Z,43.17
2023-05-22T21:59:40.776Z,42.93
2023-05-22T22:02:09.341Z,43.57
2023-05-22T22:04:37.593Z,42.67
2023-05-22T22:07:05.865Z,45.63
2023-05-22T22:09:34.085Z,43.40
2023-05-22T22:12:02.284Z,44.53
2023-05-22T22:14:32.124Z,45.03
2023-05-22T22:17:00.759Z,45.30
2023-05-22T22:19:29.011Z,45.37
2023-05-22T22:21:57.405Z,45.07
2023-05-22T22:24:26.081Z,44.77
2023-05-22T22:26:54.899Z,44.50
2023-05-22T22:29:23.115Z,44.90
2023-05-22T22:31:52.749Z,47.43
2023-05-22T22:34:21.272Z,45.80
2023-05-22T22:36:49.461Z,43.53
2023-05-22T22:39:17.664Z,44.40
2023-05-22T22:41:45.856Z,44.33
2023-05-22T22:44:14.039Z,42.73
2023-05-22T22:46:42.886Z,44.40
2023-05-22T22:49:12.476Z,43.37
2023-05-22T22:51:40.706Z,42.50
2023-05-22T22:54:08.916Z,42.67
2023-05-22T22:56:37.289Z,43.77
2023-05-22T22:59:05.482Z,41.20
2023-05-22T23:01:33.744Z,40.50
2023-05-22T23:04:02.092Z,42.00
2023-05-22T23:06:32.880Z,42.17
2023-05-22T23:09:02.786Z,40.37
2023-05-22T23:11:37.142Z,42.30
2023-05-22T23:14:07.203Z,42.00
2023-05-22T23:16:40.619Z,40.93
2023-05-22T23:19:10.285Z,39.90
2023-05-22T23:21:39.931Z,42.13
2023-05-22T23:24:08.357Z,42.07
2023-05-22T23:26:36.553Z,40.03
2023-05-22T23:29:04.754Z,42.67
2023-05-22T23:31:33.113Z,41.10
2023-05-22T23:34:01.342Z,43.73
2023-05-22T23:36:30.869Z,42.30
2023-05-22T23:39:00.427Z,42.10
2023-05-22T23:41:28.652Z,42.83
2023-05-22T23:43:56.882Z,43.50
2023-05-22T23:46:25.111Z,42.13
2023-05-22T23:48:53.350Z,41.90
2023-05-22T23:51:21.570Z,39.70
2023-05-22T23:53:49.787Z,39.53
2023-05-22T23:56:19.321Z,40.87
2023-05-22T23:58:47.574Z,40.53
